Terminal Aerodrome Forecast
Issued by NWS Mt. Holly, NJ

Home | Current Version | Previous Version | Text Only | Print | Product List | Glossary On
Versions: 1 2 3 4 5 6 7 8 9 10 11 12 13 14 15 16 17 18 19 20
000
FTUS41 KPHI 230100 AAA
TAFRDG
TAF AMD
KRDG 230101Z 2301/2324 34015G25KT P6SM -SHRA SCT015 OVC030
     FM230200 33015G23KT P6SM -SHRA SCT015 OVC030
     FM231400 33017G28KT P6SM OVC025 PROB30 2314/2316 6SM -RA OVC015
     FM232000 34017G23KT P6SM SCT025 OVC050=

USA.gov is the U.S. government's official web portal to all federal, state and local government web resources and services.